Time;durP1;ratioP1;P1;durP2;ratioP2;P2;SDS_P1;SDS_P2;PMS_P1;PMS_P2;Temp;Humidity;BMP_temperature;BMP_pressure;BME280_temperature;BME280_humidity;BME280_pressure;Samples;Min_cycle;Max_cycle;Signal;HPM_P1;HPM_P2
2022/04/04 00:00:16;;;;;;;4.17;3.60;;;1.40;58.70;;;;;;944779;146;27415;-75
2022/04/04 00:02:43;;;;;;;5.20;3.57;;;1.30;58.60;;;;;;922714;150;27307;-76
2022/04/04 00:05:10;;;;;;;4.73;3.50;;;1.30;58.80;;;;;;928762;150;27377;-74
2022/04/04 00:07:36;;;;;;;4.60;3.87;;;1.30;58.90;;;;;;930083;150;27384;-76
2022/04/04 00:10:02;;;;;;;5.53;3.70;;;1.30;58.90;;;;;;945200;147;27257;-76
2022/04/04 00:12:29;;;;;;;4.30;3.53;;;1.30;59.10;;;;;;935129;149;27992;-76
2022/04/04 00:14:55;;;;;;;4.00;3.30;;;1.30;59.10;;;;;;945623;147;27330;-76
2022/04/04 00:17:22;;;;;;;4.33;3.60;;;1.30;59.20;;;;;;946117;147;27428;-76
2022/04/04 00:19:49;;;;;;;4.77;3.70;;;1.30;59.30;;;;;;946005;147;27344;-75
2022/04/04 00:22:15;;;;;;;3.70;3.40;;;1.30;59.30;;;;;;929781;150;27371;-75
2022/04/04 00:24:42;;;;;;;4.30;3.70;;;1.30;59.30;;;;;;930325;149;27417;-76
2022/04/04 00:27:08;;;;;;;4.17;3.77;;;1.20;59.30;;;;;;944533;147;27270;-75
2022/04/04 00:29:35;;;;;;;5.33;3.47;;;1.20;59.30;;;;;;924462;150;27822;-76
2022/04/04 00:32:02;;;;;;;4.07;3.67;;;1.20;59.40;;;;;;938554;148;27343;-76
2022/04/04 00:34:28;;;;;;;4.23;3.80;;;1.20;59.60;;;;;;938595;148;27261;-76
2022/04/04 00:36:55;;;;;;;4.37;3.73;;;1.20;59.70;;;;;;937500;148;27250;-76
2022/04/04 00:39:21;;;;;;;4.13;3.63;;;1.20;59.70;;;;;;944988;148;27323;-75
2022/04/04 00:41:48;;;;;;;6.13;3.83;;;1.20;59.80;;;;;;942576;148;27518;-74
2022/04/04 00:44:14;;;;;;;5.50;3.60;;;1.20;59.80;;;;;;942182;148;27447;-76
2022/04/04 00:46:41;;;;;;;3.60;3.30;;;1.10;60.00;;;;;;944886;148;27784;-76
2022/04/04 00:49:08;;;;;;;4.23;3.43;;;1.10;59.90;;;;;;946476;148;27402;-76
2022/04/04 00:51:34;;;;;;;4.90;4.07;;;1.10;59.90;;;;;;945398;148;27401;-75
2022/04/04 00:54:01;;;;;;;5.30;4.27;;;1.10;60.00;;;;;;943988;148;27367;-76
2022/04/04 00:56:27;;;;;;;3.50;3.20;;;1.10;60.10;;;;;;945528;148;28606;-76
2022/04/04 00:58:54;;;;;;;4.20;3.47;;;1.10;60.90;;;;;;944436;148;27884;-76
2022/04/04 01:01:23;;;;;;;4.57;3.50;;;1.10;60.20;;;;;;944447;148;27430;-76
2022/04/04 01:03:50;;;;;;;5.17;3.70;;;1.10;60.30;;;;;;942997;148;27812;-74
2022/04/04 01:06:16;;;;;;;5.23;3.33;;;1.00;60.30;;;;;;945671;148;27526;-76
2022/04/04 01:08:44;;;;;;;3.80;3.43;;;1.00;60.40;;;;;;944462;148;27301;-76
2022/04/04 01:11:10;;;;;;;4.33;3.47;;;1.00;60.60;;;;;;944677;148;27308;-76
2022/04/04 01:13:36;;;;;;;4.57;3.63;;;1.00;60.70;;;;;;944077;148;27325;-75
2022/04/04 01:16:03;;;;;;;3.73;3.37;;;1.00;60.70;;;;;;944400;148;27350;-74
2022/04/04 01:18:29;;;;;;;3.50;3.20;;;1.00;60.80;;;;;;943444;147;27467;-75
2022/04/04 01:20:56;;;;;;;4.07;3.67;;;1.00;60.90;;;;;;945208;148;27342;-76
2022/04/04 01:23:23;;;;;;;4.60;3.93;;;1.00;60.90;;;;;;944072;148;27304;-75
2022/04/04 01:25:49;;;;;;;4.13;3.50;;;1.00;61.00;;;;;;946801;148;27333;-76
2022/04/04 01:28:16;;;;;;;4.03;3.50;;;1.00;61.10;;;;;;947447;148;27403;-75
2022/04/04 01:30:43;;;;;;;4.13;3.73;;;0.90;61.10;;;;;;943280;148;27373;-76
2022/04/04 01:33:09;;;;;;;4.30;3.63;;;0.90;61.20;;;;;;947244;148;27322;-75
2022/04/04 01:35:38;;;;;;;3.93;3.53;;;0.90;61.20;;;;;;945251;148;27471;-76
2022/04/04 01:38:02;;;;;;;5.57;3.47;;;0.90;61.20;;;;;;944864;148;27285;-75
2022/04/04 01:43:09;;;;;;;3.97;3.50;;;0.90;61.20;;;;;;976375;143;37020;-76
2022/04/04 01:48:20;;;;;;;5.17;3.20;;;0.90;61.70;;;;;;970308;146;27442;-76
2022/04/04 01:50:47;;;;;;;3.20;2.90;;;0.90;61.70;;;;;;971834;146;27339;-77
2022/04/04 01:53:29;;;;;;;4.17;3.70;;;0.90;61.70;;;;;;971040;146;27259;-77
2022/04/04 01:55:55;;;;;;;3.40;3.10;;;0.90;61.70;;;;;;971706;146;27381;-74
2022/04/04 01:58:23;;;;;;;3.67;3.37;;;0.90;61.60;;;;;;972122;145;27312;-74
2022/04/04 02:00:48;;;;;;;4.00;3.30;;;0.90;62.50;;;;;;972036;144;27656;-74
2022/04/04 02:03:14;;;;;;;4.23;3.10;;;0.90;61.80;;;;;;972244;146;27383;-75
2022/04/04 02:05:41;;;;;;;4.23;3.20;;;0.90;61.90;;;;;;973974;146;27270;-73
2022/04/04 02:08:08;;;;;;;4.50;3.30;;;0.90;62.00;;;;;;970147;146;27253;-75
2022/04/04 02:10:34;;;;;;;3.60;3.30;;;0.90;62.00;;;;;;971205;146;27331;-74
2022/04/04 02:13:01;;;;;;;4.07;3.67;;;0.90;62.10;;;;;;972302;146;27355;-75
2022/04/04 02:15:27;;;;;;;3.93;3.53;;;0.90;62.10;;;;;;971190;146;27227;-75
2022/04/04 02:17:54;;;;;;;4.17;3.43;;;0.90;62.10;;;;;;972977;146;27232;-75
2022/04/04 02:20:20;;;;;;;3.50;3.20;;;0.90;62.20;;;;;;972467;146;27307;-74
2022/04/04 02:22:48;;;;;;;5.10;3.73;;;0.90;62.20;;;;;;971191;146;27409;-74
2022/04/04 02:25:14;;;;;;;3.77;3.40;;;0.90;62.30;;;;;;972329;145;27347;-75
2022/04/04 02:27:40;;;;;;;3.87;3.23;;;0.80;62.20;;;;;;973842;146;27305;-74
2022/04/04 02:30:07;;;;;;;3.77;3.47;;;0.80;62.30;;;;;;971405;146;27413;-74
2022/04/04 02:32:33;;;;;;;3.83;3.47;;;0.80;62.30;;;;;;970399;144;27324;-75
2022/04/04 02:35:00;;;;;;;4.60;3.73;;;0.80;62.50;;;;;;971180;146;27215;-74
2022/04/04 02:37:27;;;;;;;4.37;3.70;;;0.80;62.60;;;;;;971452;146;27456;-75
2022/04/04 02:39:53;;;;;;;4.40;3.33;;;0.80;62.50;;;;;;972851;146;27466;-75
2022/04/04 02:42:20;;;;;;;4.93;3.50;;;0.80;62.60;;;;;;971860;146;27335;-75
2022/04/04 02:44:46;;;;;;;3.77;3.47;;;0.80;62.60;;;;;;977144;143;27230;-75
2022/04/04 02:47:13;;;;;;;3.43;3.13;;;0.80;62.80;;;;;;975826;146;27299;-75
2022/04/04 02:49:39;;;;;;;4.33;3.60;;;0.70;62.80;;;;;;973285;143;27432;-75
2022/04/04 02:52:06;;;;;;;3.90;3.60;;;0.70;62.90;;;;;;959948;146;28302;-75
2022/04/04 02:54:33;;;;;;;3.50;3.17;;;0.80;63.00;;;;;;956185;146;27273;-75
2022/04/04 02:56:59;;;;;;;3.33;3.03;;;0.80;63.10;;;;;;976985;143;27219;-75
2022/04/04 02:59:26;;;;;;;4.10;3.70;;;0.80;63.10;;;;;;978658;143;27398;-73
2022/04/04 03:01:52;;;;;;;4.97;3.50;;;0.80;63.10;;;;;;973733;142;27447;-73
2022/04/04 03:04:19;;;;;;;4.13;3.73;;;0.80;63.20;;;;;;959318;146;27244;-73
2022/04/04 03:06:46;;;;;;;4.53;3.93;;;0.80;63.20;;;;;;976178;143;27318;-73
2022/04/04 03:09:12;;;;;;;3.77;3.33;;;0.80;63.30;;;;;;975628;143;27286;-73
2022/04/04 03:11:39;;;;;;;3.23;2.93;;;0.80;63.20;;;;;;977611;142;27716;-73
2022/04/04 03:14:05;;;;;;;4.03;3.60;;;0.80;63.10;;;;;;975823;143;27425;-73
2022/04/04 03:16:32;;;;;;;4.27;3.87;;;0.80;63.20;;;;;;976560;143;27289;-73
2022/04/04 03:18:59;;;;;;;3.30;3.00;;;0.80;63.30;;;;;;975487;143;27298;-73
2022/04/04 03:21:27;;;;;;;3.50;3.20;;;0.80;63.30;;;;;;976051;143;27419;-74
2022/04/04 03:23:52;;;;;;;3.93;3.53;;;0.80;63.30;;;;;;975492;143;27238;-73
2022/04/04 03:26:18;;;;;;;4.07;3.77;;;0.70;62.50;;;;;;977883;143;27307;-73
2022/04/04 03:28:46;;;;;;;3.80;3.40;;;0.70;63.20;;;;;;975823;143;27484;-73
2022/04/04 03:31:11;;;;;;;3.40;3.10;;;0.70;63.10;;;;;;976995;143;27278;-73
2022/04/04 03:33:38;;;;;;;4.40;4.00;;;0.70;63.20;;;;;;975027;143;27307;-73
2022/04/04 03:36:05;;;;;;;3.60;3.30;;;0.70;63.30;;;;;;975795;143;27322;-73
2022/04/04 03:38:31;;;;;;;3.50;3.20;;;0.70;63.50;;;;;;977981;143;27317;-73
2022/04/04 03:40:58;;;;;;;3.97;3.57;;;0.70;63.50;;;;;;977092;142;27326;-73
2022/04/04 03:43:25;;;;;;;4.13;3.77;;;0.70;63.50;;;;;;970589;143;27277;-73
2022/04/04 03:45:51;;;;;;;6.07;3.90;;;0.60;63.40;;;;;;965197;144;27771;-73
2022/04/04 03:48:17;;;;;;;4.13;3.73;;;0.60;63.50;;;;;;964562;144;27364;-73
2022/04/04 03:50:45;;;;;;;4.77;3.73;;;0.60;63.80;;;;;;962914;144;27328;-73
2022/04/04 03:53:11;;;;;;;3.63;3.33;;;0.60;63.80;;;;;;963063;144;27319;-73
2022/04/04 03:55:38;;;;;;;3.33;3.00;;;0.60;64.00;;;;;;945197;147;27366;-73
2022/04/04 03:58:04;;;;;;;3.30;3.00;;;0.70;64.20;;;;;;960682;144;27396;-73
2022/04/04 04:00:30;;;;;;;4.87;3.70;;;0.70;64.40;;;;;;944884;147;27347;-73
2022/04/04 04:02:57;;;;;;;4.40;4.00;;;0.70;64.50;;;;;;947493;147;27437;-73
2022/04/04 04:05:24;;;;;;;4.83;3.63;;;0.80;64.70;;;;;;961208;144;27330;-75
2022/04/04 04:07:51;;;;;;;4.10;3.73;;;0.90;64.90;;;;;;953434;147;27396;-76
2022/04/04 04:10:17;;;;;;;4.27;3.87;;;1.00;64.90;;;;;;952444;147;27298;-76
2022/04/04 04:12:43;;;;;;;4.10;3.70;;;1.00;64.80;;;;;;955015;146;27329;-76
2022/04/04 04:15:10;;;;;;;4.03;3.63;;;1.20;65.00;;;;;;952625;147;27457;-76
2022/04/04 04:17:36;;;;;;;4.03;3.37;;;1.20;65.00;;;;;;952556;147;28903;-76
2022/04/04 04:22:49;;;;;;;4.40;4.00;;;1.40;64.60;;;;;;951441;147;27289;-74
2022/04/04 04:25:15;;;;;;;3.43;3.13;;;1.50;64.40;;;;;;953780;147;27347;-74
2022/04/04 04:27:42;;;;;;;4.17;3.77;;;1.60;64.40;;;;;;956387;147;27317;-74
2022/04/04 04:30:08;;;;;;;4.20;3.77;;;1.70;64.40;;;;;;950747;147;27483;-74
2022/04/04 04:32:34;;;;;;;4.20;3.80;;;1.70;64.30;;;;;;953477;147;27345;-74
2022/04/04 04:35:01;;;;;;;3.87;3.33;;;1.80;64.10;;;;;;954609;147;27309;-74
2022/04/04 04:37:28;;;;;;;4.30;3.90;;;1.80;64.00;;;;;;956434;147;27297;-74
2022/04/04 04:39:54;;;;;;;3.80;3.50;;;1.80;63.90;;;;;;953188;147;27360;-75
2022/04/04 04:42:21;;;;;;;4.00;3.63;;;1.80;63.70;;;;;;954952;147;27385;-74
2022/04/04 04:47:25;;;;;;;5.20;4.30;;;1.80;63.70;;;;;;977509;145;37063;-74
2022/04/04 04:49:52;;;;;;;4.13;3.50;;;1.80;63.80;;;;;;958074;148;27290;-74
2022/04/04 04:52:18;;;;;;;4.40;4.00;;;1.80;63.70;;;;;;958354;147;27314;-74
2022/04/04 04:54:45;;;;;;;4.70;3.87;;;1.80;63.70;;;;;;957885;148;27432;-74
2022/04/04 04:57:12;;;;;;;4.03;3.63;;;1.70;63.50;;;;;;926532;154;27299;-75
2022/04/04 04:59:38;;;;;;;6.47;3.90;;;1.70;63.50;;;;;;956386;146;27278;-75
2022/04/04 05:02:05;;;;;;;4.60;3.90;;;1.70;63.70;;;;;;960201;147;27317;-74
2022/04/04 05:04:31;;;;;;;5.67;3.97;;;1.70;63.70;;;;;;958707;148;27427;-74
2022/04/04 05:06:58;;;;;;;4.67;4.27;;;1.70;63.90;;;;;;959044;147;27263;-74
2022/04/04 05:09:25;;;;;;;5.40;4.27;;;1.70;63.90;;;;;;959828;147;27398;-74
2022/04/04 05:11:53;;;;;;;4.30;3.90;;;1.70;64.00;;;;;;956427;148;27355;-74
2022/04/04 05:14:18;;;;;;;4.50;4.10;;;1.80;64.20;;;;;;951933;148;27313;-74
2022/04/04 05:16:44;;;;;;;6.23;4.47;;;1.80;64.20;;;;;;951661;148;27343;-74
2022/04/04 05:19:11;;;;;;;5.30;3.80;;;1.80;64.30;;;;;;951137;148;27262;-74
2022/04/04 05:21:38;;;;;;;4.47;4.07;;;1.90;64.30;;;;;;952479;148;27339;-74
2022/04/04 05:24:04;;;;;;;5.30;4.80;;;1.90;64.20;;;;;;953025;148;27258;-74
2022/04/04 05:26:31;;;;;;;5.00;4.50;;;2.00;64.30;;;;;;951286;148;27383;-74
2022/04/04 05:28:57;;;;;;;4.47;4.07;;;2.10;64.30;;;;;;951395;148;27353;-74
2022/04/04 05:31:24;;;;;;;4.80;4.10;;;2.10;64.20;;;;;;951210;148;27318;-74
2022/04/04 05:33:50;;;;;;;4.43;4.03;;;2.10;64.10;;;;;;954060;148;27341;-74
2022/04/04 05:36:17;;;;;;;3.90;3.50;;;2.20;64.10;;;;;;951074;148;27270;-74
2022/04/04 05:38:44;;;;;;;5.00;4.50;;;2.20;64.20;;;;;;952643;148;27331;-74
2022/04/04 05:41:10;;;;;;;4.80;4.40;;;2.30;64.20;;;;;;947938;148;27418;-74
2022/04/04 05:43:37;;;;;;;4.40;3.93;;;2.30;64.30;;;;;;950941;148;27393;-74
2022/04/04 05:46:03;;;;;;;3.90;3.57;;;2.40;64.30;;;;;;951114;147;27940;-75
2022/04/04 05:48:31;;;;;;;4.90;4.30;;;2.50;64.40;;;;;;952953;148;27427;-74
2022/04/04 05:50:56;;;;;;;4.40;4.00;;;2.50;64.50;;;;;;960217;147;27370;-74
2022/04/04 05:53:23;;;;;;;4.40;4.00;;;2.70;64.70;;;;;;960159;147;27322;-74
2022/04/04 05:55:50;;;;;;;4.30;3.93;;;2.80;64.70;;;;;;960344;147;27290;-75
2022/04/04 05:58:16;;;;;;;5.00;4.50;;;3.00;64.80;;;;;;959568;147;27328;-74
2022/04/04 06:00:43;;;;;;;5.53;4.70;;;3.10;64.90;;;;;;958125;147;27251;-74
2022/04/04 06:03:09;;;;;;;5.97;4.50;;;3.30;64.80;;;;;;957281;147;27324;-75
2022/04/04 06:05:36;;;;;;;5.20;4.37;;;3.50;64.80;;;;;;959778;147;27330;-75
2022/04/04 06:08:03;;;;;;;5.43;4.93;;;3.80;64.90;;;;;;954100;148;27281;-74
2022/04/04 06:10:29;;;;;;;5.23;4.73;;;4.00;64.80;;;;;;954111;148;27390;-74
2022/04/04 06:12:56;;;;;;;5.20;4.70;;;4.30;64.80;;;;;;954042;148;27335;-74
2022/04/04 06:15:22;;;;;;;5.03;4.53;;;4.60;64.60;;;;;;958803;147;27361;-73
2022/04/04 06:17:49;;;;;;;5.47;4.97;;;4.90;64.60;;;;;;967209;146;27365;-73
2022/04/04 06:20:15;;;;;;;5.37;4.87;;;5.20;64.50;;;;;;966699;146;27352;-73
2022/04/04 06:22:43;;;;;;;6.20;5.17;;;5.60;64.40;;;;;;968017;146;27263;-73
2022/04/04 06:25:09;;;;;;;5.10;4.60;;;5.90;64.20;;;;;;966431;146;27340;-73
2022/04/04 06:27:35;;;;;;;5.23;4.73;;;6.40;64.30;;;;;;950613;149;27338;-73
2022/04/04 06:30:02;;;;;;;5.63;5.13;;;6.80;64.10;;;;;;966790;146;27456;-73
2022/04/04 06:32:28;;;;;;;5.60;5.10;;;7.20;63.50;;;;;;965681;146;27801;-74
2022/04/04 06:34:55;;;;;;;6.40;5.73;;;7.60;63.10;;;;;;960459;147;27352;-73
2022/04/04 06:37:22;;;;;;;5.93;5.43;;;8.00;62.50;;;;;;958512;145;27372;-73
2022/04/04 06:39:48;;;;;;;5.70;5.20;;;8.40;61.80;;;;;;956510;145;27350;-74
2022/04/04 06:42:15;;;;;;;5.73;5.17;;;8.70;61.10;;;;;;956098;147;27344;-73
2022/04/04 06:44:42;;;;;;;8.50;5.60;;;9.00;60.70;;;;;;958239;147;27973;-73
2022/04/04 06:47:08;;;;;;;6.00;5.40;;;9.40;60.40;;;;;;958234;147;27350;-73
2022/04/04 06:49:34;;;;;;;5.40;5.00;;;9.70;60.10;;;;;;959248;147;27288;-73
2022/04/04 06:52:01;;;;;;;6.53;5.63;;;10.00;60.00;;;;;;955748;147;27358;-73
2022/04/04 06:54:28;;;;;;;5.87;5.27;;;10.40;59.60;;;;;;957291;147;27729;-74
2022/04/04 06:56:55;;;;;;;6.13;5.43;;;10.70;59.20;;;;;;957724;145;27246;-73
2022/04/04 06:59:21;;;;;;;6.50;5.87;;;11.10;58.90;;;;;;956901;147;27720;-74
2022/04/04 07:01:48;;;;;;;5.90;5.37;;;11.40;58.50;;;;;;958422;147;27324;-74
2022/04/04 07:04:14;;;;;;;5.67;5.17;;;11.70;58.10;;;;;;959747;147;27345;-74
2022/04/04 07:06:41;;;;;;;6.37;4.67;;;12.00;57.80;;;;;;959011;147;27366;-74
2022/04/04 07:09:08;;;;;;;5.77;4.87;;;12.40;57.50;;;;;;958359;147;27282;-74
2022/04/04 07:11:34;;;;;;;6.53;5.37;;;12.80;57.40;;;;;;956715;147;27295;-74
2022/04/04 07:14:00;;;;;;;4.80;4.40;;;13.20;57.30;;;;;;956383;147;27283;-74
2022/04/04 07:16:27;;;;;;;5.20;4.80;;;13.70;57.10;;;;;;959194;147;27287;-74
2022/04/04 07:18:53;;;;;;;4.97;4.58;;;14.20;56.70;;;;;;957300;147;27305;-73
2022/04/04 07:21:22;;;;;;;6.22;4.35;;;14.80;56.20;;;;;;956998;147;27339;-74
2022/04/04 07:23:48;;;;;;;5.00;4.60;;;15.30;55.50;;;;;;957378;147;27330;-75
2022/04/04 07:26:18;;;;;;;6.05;4.60;;;15.70;54.50;;;;;;957607;145;27247;-74
2022/04/04 07:28:42;;;;;;;4.67;4.37;;;16.20;53.80;;;;;;958392;147;27332;-74
2022/04/04 07:31:09;;;;;;;4.42;4.03;;;16.60;53.10;;;;;;958466;147;27413;-74
2022/04/04 07:33:33;;;;;;;4.10;3.80;;;17.00;52.90;;;;;;957221;147;27276;-75
2022/04/04 07:36:00;;;;;;;3.95;3.65;;;17.30;52.00;;;;;;957854;145;27279;-75
2022/04/04 07:38:26;;;;;;;4.08;3.77;;;17.60;51.20;;;;;;958992;147;27308;-75
2022/04/04 07:40:53;;;;;;;3.92;3.62;;;17.90;50.10;;;;;;958948;145;27403;-75
2022/04/04 07:43:19;;;;;;;3.70;3.42;;;18.00;49.40;;;;;;958471;147;27298;-75
2022/04/04 07:45:46;;;;;;;4.08;3.67;;;18.00;48.50;;;;;;958550;147;27253;-75
2022/04/04 07:48:13;;;;;;;3.67;3.40;;;17.90;48.00;;;;;;958656;147;27278;-75
2022/04/04 07:50:41;;;;;;;3.65;3.37;;;17.70;47.60;;;;;;957506;147;27270;-75
2022/04/04 07:53:06;;;;;;;3.65;3.30;;;17.50;47.40;;;;;;958776;147;27199;-74
2022/04/04 07:55:33;;;;;;;3.62;3.33;;;17.40;47.50;;;;;;958419;147;27400;-75
2022/04/04 07:57:59;;;;;;;3.35;3.12;;;17.30;47.00;;;;;;958049;147;27435;-74
2022/04/04 08:00:26;;;;;;;3.60;3.30;;;17.10;46.40;;;;;;958935;147;27555;-75
2022/04/04 08:02:52;;;;;;;3.72;3.42;;;17.00;46.70;;;;;;959310;147;27246;-74
2022/04/04 08:05:19;;;;;;;3.35;3.05;;;16.80;46.70;;;;;;958818;145;27385;-74
2022/04/04 08:07:48;;;;;;;4.33;3.45;;;16.60;46.40;;;;;;957588;147;27346;-74
2022/04/04 08:10:12;;;;;;;3.73;3.43;;;16.30;45.90;;;;;;957995;147;27686;-74
2022/04/04 08:12:38;;;;;;;4.10;3.70;;;16.10;46.00;;;;;;958935;147;27382;-75
2022/04/04 08:15:05;;;;;;;3.75;3.45;;;15.80;46.00;;;;;;957356;147;27429;-74
2022/04/04 08:17:32;;;;;;;3.60;3.30;;;15.50;46.20;;;;;;957370;147;27404;-74
2022/04/04 08:19:58;;;;;;;3.83;3.53;;;15.30;46.50;;;;;;958182;147;27347;-74
2022/04/04 08:22:25;;;;;;;4.37;3.67;;;15.10;46.80;;;;;;957563;147;27372;-74
2022/04/04 08:24:51;;;;;;;4.23;3.80;;;15.00;46.90;;;;;;956468;147;27307;-74
2022/04/04 08:27:18;;;;;;;3.70;3.40;;;14.90;47.20;;;;;;960124;147;27327;-74
2022/04/04 08:29:45;;;;;;;4.20;3.80;;;14.80;46.90;;;;;;958694;147;27260;-73
2022/04/04 08:32:11;;;;;;;3.97;3.57;;;14.70;46.90;;;;;;956775;147;27381;-72
2022/04/04 08:34:38;;;;;;;3.27;2.97;;;14.60;47.00;;;;;;956857;147;27335;-72
2022/04/04 08:37:04;;;;;;;4.70;3.73;;;14.50;46.90;;;;;;960496;147;27310;-72
2022/04/04 08:39:31;;;;;;;4.17;3.60;;;14.50;46.70;;;;;;958176;146;27287;-72
2022/04/04 08:41:58;;;;;;;4.27;3.87;;;14.50;46.90;;;;;;957628;147;27401;-72
2022/04/04 08:44:24;;;;;;;4.30;3.80;;;14.40;46.70;;;;;;957284;147;27367;-73
2022/04/04 08:46:51;;;;;;;4.13;3.83;;;14.40;46.80;;;;;;958896;147;27374;-72
2022/04/04 08:49:17;;;;;;;4.70;4.17;;;14.40;46.80;;;;;;947042;146;27407;-73
2022/04/04 08:51:44;;;;;;;3.97;3.67;;;14.30;46.80;;;;;;947437;149;27289;-73
2022/04/04 08:54:10;;;;;;;4.20;3.90;;;14.30;47.00;;;;;;945725;146;27305;-73
2022/04/04 08:56:37;;;;;;;4.03;3.67;;;14.30;46.90;;;;;;946113;149;27353;-73
2022/04/04 08:59:04;;;;;;;3.63;3.33;;;14.40;47.40;;;;;;944395;149;28751;-73
2022/04/04 09:01:31;;;;;;;4.23;3.83;;;14.50;47.60;;;;;;945052;149;27332;-73
2022/04/04 09:04:00;;;;;;;3.70;3.40;;;14.80;47.80;;;;;;945673;149;27848;-73
2022/04/04 09:06:29;;;;;;;3.72;3.42;;;15.10;47.70;;;;;;944167;148;27341;-73
2022/04/04 09:08:56;;;;;;;4.42;3.67;;;15.50;47.60;;;;;;944980;149;27415;-73
2022/04/04 09:11:22;;;;;;;3.75;3.45;;;15.90;47.80;;;;;;946078;148;27239;-73
2022/04/04 09:14:05;;;;;;;3.50;3.20;;;16.40;47.20;;;;;;943909;149;27308;-73
2022/04/04 09:16:30;;;;;;;3.80;3.50;;;16.90;47.10;;;;;;943619;149;27563;-74
2022/04/04 09:18:57;;;;;;;3.95;3.55;;;17.30;46.80;;;;;;946780;148;27394;-74
2022/04/04 09:21:24;;;;;;;3.40;3.20;;;17.60;46.20;;;;;;949004;149;27376;-73
2022/04/04 09:23:50;;;;;;;3.60;3.35;;;17.90;45.30;;;;;;945574;149;28293;-74
2022/04/04 09:26:36;;;;;;;4.30;3.90;;;18.10;44.60;;;;;;945994;149;27404;-73
2022/04/04 09:29:16;;;;;;;4.08;3.70;;;18.20;43.40;;;;;;947212;149;27439;-75
2022/04/04 09:31:53;;;;;;;3.55;3.25;;;18.40;44.20;;;;;;947864;149;27380;-75
2022/04/04 09:34:20;;;;;;;3.20;3.00;;;18.60;44.70;;;;;;946897;148;27348;-75
2022/04/04 09:36:46;;;;;;;3.35;3.12;;;18.90;44.60;;;;;;943352;149;27337;-75
2022/04/04 09:39:13;;;;;;;3.37;3.08;;;19.20;44.60;;;;;;944108;149;27326;-75
2022/04/04 09:41:39;;;;;;;3.30;3.00;;;19.60;44.10;;;;;;943577;149;27375;-75
2022/04/04 09:44:06;;;;;;;4.55;3.20;;;20.00;43.60;;;;;;945711;148;27387;-75
2022/04/04 09:46:33;;;;;;;6.10;3.72;;;20.30;43.90;;;;;;943368;148;27306;-75
2022/04/04 09:49:17;;;;;;;3.40;3.20;;;20.60;42.70;;;;;;947920;147;27556;-75
2022/04/04 09:51:44;;;;;;;3.10;2.90;;;20.80;41.30;;;;;;957862;147;27412;-74
2022/04/04 09:54:11;;;;;;;3.98;3.45;;;20.80;41.10;;;;;;955575;147;27342;-75
2022/04/04 09:56:37;;;;;;;6.85;3.35;;;20.70;40.50;;;;;;959159;147;27356;-75
2022/04/04 09:59:04;;;;;;;3.15;2.92;;;20.50;39.70;;;;;;955350;147;27364;-75
2022/04/04 10:01:30;;;;;;;3.77;3.47;;;20.20;39.60;;;;;;959347;147;27272;-75
2022/04/04 10:03:57;;;;;;;5.10;3.27;;;19.90;40.00;;;;;;958262;147;27350;-75
2022/04/04 10:06:29;;;;;;;4.15;3.80;;;19.60;40.20;;;;;;957896;147;27318;-75
2022/04/04 10:08:59;;;;;;;4.22;3.35;;;19.30;39.70;;;;;;957715;147;27223;-75
2022/04/04 10:11:25;;;;;;;3.62;3.33;;;19.00;40.00;;;;;;956393;147;27290;-76
2022/04/04 10:13:52;;;;;;;4.15;3.45;;;18.70;40.10;;;;;;955889;147;27419;-75
2022/04/04 10:16:19;;;;;;;3.60;3.30;;;18.50;40.10;;;;;;958605;147;27246;-75
2022/04/04 10:18:46;;;;;;;3.65;3.35;;;18.20;40.00;;;;;;956546;147;27324;-75
2022/04/04 10:21:12;;;;;;;3.27;2.98;;;18.10;40.50;;;;;;957487;147;27288;-75
2022/04/04 10:23:38;;;;;;;2.77;2.58;;;17.90;38.90;;;;;;955861;146;27293;-75
2022/04/04 10:26:07;;;;;;;3.75;2.90;;;17.80;39.80;;;;;;957586;147;27339;-75
2022/04/04 10:28:32;;;;;;;3.22;2.92;;;17.60;40.40;;;;;;957407;147;27971;-75
2022/04/04 10:30:58;;;;;;;2.90;2.70;;;17.50;39.90;;;;;;956504;147;27270;-75
2022/04/04 10:33:25;;;;;;;2.80;2.60;;;17.50;40.20;;;;;;953703;147;27616;-75
2022/04/04 10:36:00;;;;;;;3.00;2.80;;;17.30;40.40;;;;;;959289;147;27383;-75
2022/04/04 10:38:30;;;;;;;2.80;2.58;;;17.20;40.00;;;;;;955598;147;27418;-75
2022/04/04 10:40:56;;;;;;;3.08;2.85;;;17.00;40.40;;;;;;953412;147;27287;-75
2022/04/04 10:43:23;;;;;;;4.97;2.98;;;16.90;40.50;;;;;;957421;147;27250;-75
2022/04/04 10:45:52;;;;;;;3.20;2.90;;;16.80;40.30;;;;;;957540;147;27370;-75
2022/04/04 10:48:19;;;;;;;3.10;2.83;;;16.70;39.90;;;;;;956460;147;27349;-75
2022/04/04 10:50:45;;;;;;;3.00;2.80;;;16.50;40.30;;;;;;949378;147;27329;-75
2022/04/04 10:53:12;;;;;;;2.72;2.52;;;16.40;40.20;;;;;;944288;149;27279;-75
2022/04/04 10:55:41;;;;;;;3.05;2.85;;;16.30;39.60;;;;;;945703;149;27347;-75
2022/04/04 10:58:07;;;;;;;3.23;3.03;;;16.20;40.40;;;;;;945869;149;27339;-75
2022/04/04 11:00:37;;;;;;;2.87;2.62;;;16.10;40.60;;;;;;943601;149;27352;-75
2022/04/04 11:03:03;;;;;;;3.20;2.90;;;16.00;40.50;;;;;;944343;149;27404;-75
2022/04/04 11:08:13;;;;;;;3.37;2.92;;;15.90;41.30;;;;;;944082;149;27334;-74
2022/04/04 11:10:47;;;;;;;2.83;2.63;;;15.90;41.60;;;;;;945066;149;27366;-75
2022/04/04 11:13:08;;;;;;;3.10;2.72;;;15.90;41.10;;;;;;944574;149;27448;-75
2022/04/04 11:15:53;;;;;;;4.90;2.73;;;15.90;41.30;;;;;;944575;149;27361;-74
2022/04/04 11:18:17;;;;;;;3.03;2.70;;;15.90;41.00;;;;;;946060;149;27428;-74
2022/04/04 11:20:54;;;;;;;3.00;2.80;;;15.90;40.90;;;;;;947196;148;28283;-74
2022/04/04 11:23:20;;;;;;;2.72;2.52;;;15.80;39.60;;;;;;945432;149;27435;-74
2022/04/04 11:25:52;;;;;;;3.10;2.90;;;15.80;40.50;;;;;;946339;149;27418;-74
2022/04/04 11:28:15;;;;;;;2.97;2.77;;;15.70;40.90;;;;;;943111;149;27434;-75
2022/04/04 11:30:41;;;;;;;2.80;2.60;;;15.70;40.80;;;;;;945445;149;27266;-74
2022/04/04 11:33:12;;;;;;;2.95;2.70;;;15.70;41.00;;;;;;943878;149;27360;-74
2022/04/04 11:35:34;;;;;;;3.25;2.95;;;15.80;40.90;;;;;;944576;149;27341;-74
2022/04/04 11:38:01;;;;;;;3.58;3.27;;;15.80;40.80;;;;;;947337;149;28385;-74
2022/04/04 11:40:29;;;;;;;2.92;2.67;;;15.80;40.70;;;;;;944393;149;27280;-74
2022/04/04 11:42:54;;;;;;;2.83;2.50;;;15.80;40.50;;;;;;946789;149;27239;-74
2022/04/04 11:45:21;;;;;;;2.97;2.77;;;15.80;40.60;;;;;;944563;149;27249;-74
2022/04/04 11:47:50;;;;;;;2.62;2.42;;;15.70;40.20;;;;;;943904;149;27353;-74
2022/04/04 11:50:17;;;;;;;2.33;2.17;;;15.70;40.40;;;;;;943200;149;27381;-73
2022/04/04 11:52:55;;;;;;;2.98;2.60;;;15.70;40.60;;;;;;945323;149;27395;-74
2022/04/04 11:55:22;;;;;;;2.67;2.47;;;15.70;40.80;;;;;;940612;149;27286;-74
2022/04/04 11:57:49;;;;;;;2.70;2.50;;;15.70;40.80;;;;;;944942;149;27310;-74
2022/04/04 12:00:16;;;;;;;3.22;2.62;;;15.70;40.80;;;;;;945865;149;27369;-73
2022/04/04 12:02:43;;;;;;;2.67;2.47;;;15.80;40.40;;;;;;943789;149;27286;-74
2022/04/04 12:05:12;;;;;;;2.83;2.63;;;15.80;40.30;;;;;;944779;148;27312;-73
2022/04/04 12:07:35;;;;;;;2.90;2.70;;;15.80;39.90;;;;;;945686;149;27293;-74
2022/04/04 12:10:01;;;;;;;3.70;2.80;;;15.80;40.40;;;;;;944669;149;27352;-74
2022/04/04 12:12:33;;;;;;;2.90;2.70;;;15.80;40.40;;;;;;944024;149;27468;-74
2022/04/04 12:15:00;;;;;;;3.17;2.97;;;15.80;40.70;;;;;;944065;149;27271;-74
2022/04/04 12:17:26;;;;;;;4.67;3.23;;;15.80;40.00;;;;;;945839;149;27377;-74
2022/04/04 12:19:53;;;;;;;3.20;3.00;;;15.70;39.40;;;;;;943803;148;27930;-73
2022/04/04 12:25:04;;;;;;;3.17;2.87;;;15.60;40.10;;;;;;943901;149;27297;-73
2022/04/04 12:27:31;;;;;;;3.03;2.83;;;15.60;40.20;;;;;;946202;149;27295;-73
2022/04/04 12:30:00;;;;;;;2.63;2.43;;;15.50;40.40;;;;;;945903;148;27320;-73
2022/04/04 12:32:27;;;;;;;3.13;2.60;;;15.40;40.20;;;;;;943382;149;27439;-74
2022/04/04 12:34:59;;;;;;;2.72;2.52;;;15.40;40.20;;;;;;944760;149;27448;-74
2022/04/04 12:37:40;;;;;;;3.00;2.80;;;15.40;40.30;;;;;;944936;149;27310;-73
2022/04/04 12:40:22;;;;;;;3.13;2.93;;;15.30;39.90;;;;;;944698;148;27284;-73
2022/04/04 12:42:48;;;;;;;3.53;3.23;;;15.30;40.00;;;;;;945352;149;27281;-73
2022/04/04 12:45:16;;;;;;;3.80;2.90;;;15.20;39.70;;;;;;945075;149;27331;-73
2022/04/04 12:48:09;;;;;;;3.33;3.03;;;15.20;40.00;;;;;;947412;149;27328;-73
2022/04/04 12:50:42;;;;;;;3.23;2.93;;;15.10;39.90;;;;;;945732;149;27250;-73
2022/04/04 12:53:08;;;;;;;3.40;3.10;;;15.00;39.80;;;;;;944301;149;28436;-73
2022/04/04 12:55:35;;;;;;;3.50;3.30;;;15.00;39.60;;;;;;947150;148;27241;-73
2022/04/04 12:58:25;;;;;;;5.27;3.30;;;14.90;40.00;;;;;;944490;149;27431;-73
2022/04/04 13:00:49;;;;;;;2.83;2.63;;;14.80;39.60;;;;;;946115;149;27356;-74
2022/04/04 13:03:24;;;;;;;3.53;2.57;;;14.70;40.00;;;;;;943717;149;27414;-73
2022/04/04 13:05:53;;;;;;;3.43;2.87;;;14.60;40.10;;;;;;945746;149;27232;-73
2022/04/04 13:08:22;;;;;;;3.83;3.23;;;14.60;40.30;;;;;;944922;149;27417;-73